Time;durP1;ratioP1;P1;durP2;ratioP2;P2;SDS_P1;SDS_P2;PMS_P1;PMS_P2;Temp;Humidity;BMP_temperature;BMP_pressure;BME280_temperature;BME280_humidity;BME280_pressure;Samples;Min_cycle;Max_cycle;Signal;HPM_P1;HPM_P2
2023/09/09 00:00:53;;;;;;;11.68;5.95;;;;;;;17.88;68.10;98458.25;4396720;32;20739;-79
2023/09/09 00:03:21;;;;;;;13.62;5.78;;;;;;;17.59;68.37;98466.16;4410981;32;20086;-79
2023/09/09 00:05:49;;;;;;;11.57;5.90;;;;;;;17.50;69.05;98466.75;4410927;32;20575;-79
2023/09/09 00:08:18;;;;;;;16.35;5.97;;;;;;;17.56;68.46;98466.38;4410689;32;20129;-79
2023/09/09 00:10:46;;;;;;;11.82;5.80;;;;;;;17.57;68.45;98470.66;4410394;32;20437;-79
2023/09/09 00:13:14;;;;;;;13.40;5.60;;;;;;;17.51;68.42;98471.03;4410899;32;20082;-79
2023/09/09 00:15:41;;;;;;;11.68;5.80;;;;;;;17.84;66.75;98469.81;4398411;32;20087;-79
2023/09/09 00:18:08;;;;;;;11.93;5.57;;;;;;;17.40;68.59;98470.88;4398690;32;20124;-79
2023/09/09 00:20:38;;;;;;;12.85;5.97;;;;;;;17.32;69.47;98468.75;4412098;32;20098;-79
2023/09/09 00:23:09;;;;;;;12.20;5.32;;;;;;;17.91;66.64;98465.88;4411817;32;20143;-79
2023/09/09 00:25:42;;;;;;;11.65;5.72;;;;;;;17.52;67.62;98466.63;4398756;32;20083;-80
2023/09/09 00:28:11;;;;;;;10.93;5.22;;;;;;;17.64;67.28;98461.47;4411547;32;20116;-80
2023/09/09 00:30:38;;;;;;;12.32;5.80;;;;;;;17.42;68.38;98465.56;4397798;32;20161;-79
2023/09/09 00:33:07;;;;;;;13.93;5.97;;;;;;;17.91;66.49;98466.69;4411547;32;20094;-79
2023/09/09 00:35:38;;;;;;;13.43;6.18;;;;;;;17.74;66.95;98461.72;4411573;32;20078;-79
2023/09/09 00:38:07;;;;;;;13.80;6.57;;;;;;;17.13;69.77;98467.41;4411317;32;20417;-80
2023/09/09 00:40:35;;;;;;;12.35;5.97;;;;;;;17.58;68.34;98461.87;4411857;32;20805;-79
2023/09/09 00:43:02;;;;;;;12.93;6.30;;;;;;;17.77;67.32;98461.56;4397838;32;20098;-79
2023/09/09 00:45:29;;;;;;;12.45;6.10;;;;;;;17.48;68.09;98467.78;4411823;32;20153;-79
2023/09/09 00:47:56;;;;;;;13.98;5.97;;;;;;;17.44;67.87;98459.34;4411711;32;20113;-79
2023/09/09 00:50:24;;;;;;;13.48;5.65;;;;;;;17.40;67.82;98457.84;4411282;32;20786;-79
2023/09/09 00:52:51;;;;;;;12.55;5.65;;;;;;;17.65;66.93;98462.28;4398440;32;20083;-79
2023/09/09 00:55:20;;;;;;;17.12;6.22;;;;;;;17.37;67.90;98471.09;4412016;32;20368;-79
2023/09/09 00:57:47;;;;;;;12.05;5.43;;;;;;;17.18;68.84;98465.34;4411276;32;20504;-79
2023/09/09 01:00:14;;;;;;;12.30;5.55;;;;;;;17.24;68.29;98459.75;4411566;32;20098;-79
2023/09/09 01:02:41;;;;;;;13.18;6.10;;;;;;;17.35;68.05;98460.75;4411720;32;20097;-79
2023/09/09 01:05:10;;;;;;;12.88;6.03;;;;;;;17.19;68.93;98467.84;4397591;32;20159;-79
2023/09/09 01:07:48;;;;;;;12.95;6.03;;;;;;;17.23;68.92;98463.31;4398231;32;20759;-79
2023/09/09 01:10:18;;;;;;;;;;;;;;;17.47;68.40;98468.72;4412014;32;20132;-79
2023/09/09 01:12:45;;;;;;;13.07;6.18;;;;;;;17.39;69.11;98468.37;4411479;32;20029;-79
2023/09/09 01:15:12;;;;;;;13.57;6.22;;;;;;;16.92;71.50;98464.38;4398115;32;20098;-79
2023/09/09 01:17:40;;;;;;;13.02;6.40;;;;;;;17.13;70.47;98462.22;4393771;32;146575;-79
2023/09/09 01:20:13;;;;;;;15.32;5.97;;;;;;;17.21;69.68;98454.72;4398931;32;20145;-79
2023/09/09 01:22:43;;;;;;;13.55;5.68;;;;;;;17.21;68.97;98460.75;4413231;32;20105;-79
2023/09/09 01:25:13;;;;;;;12.37;6.07;;;;;;;17.11;69.39;98459.66;4411612;32;20518;-79
2023/09/09 01:27:40;;;;;;;13.98;6.32;;;;;;;17.13;69.10;98470.03;4413024;32;20097;-79
2023/09/09 01:30:08;;;;;;;13.57;6.60;;;;;;;16.71;70.68;98461.31;4412595;32;20204;-79
2023/09/09 01:32:35;;;;;;;16.85;6.50;;;;;;;17.26;69.30;98452.66;4412146;32;20100;-79
2023/09/09 01:35:04;;;;;;;12.93;6.28;;;;;;;17.22;69.85;98459.00;4412432;32;20082;-79
2023/09/09 01:37:32;;;;;;;12.05;6.05;;;;;;;16.99;70.50;98458.66;4412429;32;20086;-79
2023/09/09 01:40:11;;;;;;;12.05;6.47;;;;;;;16.90;70.90;98459.22;4398521;32;20098;-79
2023/09/09 01:42:39;;;;;;;12.60;6.18;;;;;;;16.88;71.29;98458.50;4412478;32;20146;-79
2023/09/09 01:45:07;;;;;;;14.60;6.00;;;;;;;17.18;70.76;98460.97;4398779;32;20094;-79
2023/09/09 01:47:34;;;;;;;13.85;6.30;;;;;;;17.08;71.06;98457.25;4412316;32;20117;-79
2023/09/09 01:50:01;;;;;;;13.80;6.80;;;;;;;17.54;68.01;98464.75;4412695;32;20147;-79
2023/09/09 01:52:28;;;;;;;12.43;6.00;;;;;;;17.52;67.63;98461.44;4413098;32;20083;-79
2023/09/09 01:54:55;;;;;;;13.75;6.03;;;;;;;17.46;67.72;98460.06;4412649;32;20074;-79
2023/09/09 01:57:26;;;;;;;13.98;6.20;;;;;;;17.25;68.17;98456.22;4413015;32;20178;-79
2023/09/09 01:59:54;;;;;;;16.25;6.55;;;;;;;17.00;69.92;98452.53;4412979;32;20097;-79
2023/09/09 02:02:21;;;;;;;14.57;6.12;;;;;;;17.00;69.51;98459.50;4412718;32;20082;-79
2023/09/09 02:04:48;;;;;;;14.48;6.55;;;;;;;16.78;70.81;98452.19;4412501;32;20058;-79
2023/09/09 02:07:15;;;;;;;12.13;5.93;;;;;;;16.70;71.57;98455.28;4412348;32;20098;-79
2023/09/09 02:09:42;;;;;;;13.07;6.30;;;;;;;16.90;70.83;98456.63;4412550;32;20117;-79
2023/09/09 02:12:09;;;;;;;14.38;6.28;;;;;;;17.08;70.60;98443.38;4412551;32;20778;-79
2023/09/09 02:14:36;;;;;;;13.13;6.30;;;;;;;16.92;71.17;98453.94;4412013;32;20158;-79
2023/09/09 02:17:03;;;;;;;13.43;6.40;;;;;;;17.16;70.12;98452.41;4412330;32;20109;-79
2023/09/09 02:19:31;;;;;;;12.37;5.97;;;;;;;16.56;72.72;98457.00;4412702;32;20112;-79
2023/09/09 02:21:58;;;;;;;12.98;6.37;;;;;;;16.69;72.15;98456.22;4412017;32;20085;-79
2023/09/09 02:24:25;;;;;;;12.70;6.30;;;;;;;16.39;73.50;98456.25;4412023;32;20082;-79
2023/09/09 02:26:52;;;;;;;14.27;5.97;;;;;;;17.01;71.39;98448.13;4412351;32;20154;-79
2023/09/09 02:29:19;;;;;;;12.85;5.95;;;;;;;16.68;72.35;98449.28;4412050;32;20435;-80
2023/09/09 02:31:46;;;;;;;13.45;5.78;;;;;;;16.83;71.00;98449.31;4412392;32;20157;-79
2023/09/09 02:34:13;;;;;;;13.68;6.25;;;;;;;16.62;71.47;98451.41;4412028;32;20154;-79
2023/09/09 02:36:44;;;;;;;12.77;6.35;;;;;;;16.87;70.95;98443.78;4411940;32;20479;-79
2023/09/09 02:39:11;;;;;;;13.57;6.70;;;;;;;16.56;72.14;98446.56;4412159;32;20189;-79
2023/09/09 02:41:38;;;;;;;14.57;6.57;;;;;;;16.74;71.70;98441.13;4412339;32;20082;-79
2023/09/09 02:44:05;;;;;;;12.25;5.97;;;;;;;16.64;71.83;98449.56;4411568;32;20120;-79
2023/09/09 02:46:32;;;;;;;14.70;6.85;;;;;;;16.48;73.22;98442.69;4412207;32;20086;-79
2023/09/09 02:48:59;;;;;;;13.50;6.50;;;;;;;17.10;70.54;98441.53;4412314;32;20110;-79
2023/09/09 02:51:26;;;;;;;13.70;6.45;;;;;;;17.02;70.93;98437.66;4411398;32;20089;-79
2023/09/09 02:53:54;;;;;;;16.12;6.60;;;;;;;17.08;70.63;98443.38;4411611;32;20429;-79
2023/09/09 02:56:21;;;;;;;13.10;6.32;;;;;;;16.75;71.70;98444.56;4411325;32;20146;-79
2023/09/09 02:58:48;;;;;;;14.25;6.30;;;;;;;17.15;70.06;98436.88;4411944;32;20090;-79
2023/09/09 03:01:15;;;;;;;14.57;6.72;;;;;;;16.96;70.87;98434.56;4412399;32;20082;-79
2023/09/09 03:03:42;;;;;;;14.50;6.70;;;;;;;17.12;70.21;98440.50;4412147;32;20082;-79
2023/09/09 03:06:10;;;;;;;15.18;6.87;;;;;;;16.98;70.84;98437.91;4411960;32;20090;-79
2023/09/09 03:08:37;;;;;;;14.85;6.37;;;;;;;16.85;71.81;98442.22;4398450;32;20126;-79
2023/09/09 03:11:04;;;;;;;14.63;6.12;;;;;;;16.45;73.43;98442.84;4411534;32;20469;-79
2023/09/09 03:13:31;;;;;;;14.00;6.95;;;;;;;16.86;71.95;98446.50;4411548;32;20134;-79
2023/09/09 03:15:58;;;;;;;14.35;6.65;;;;;;;16.86;71.62;98438.69;4411354;32;20098;-79
2023/09/09 03:18:25;;;;;;;14.43;6.03;;;;;;;16.54;72.23;98438.84;4411025;32;20090;-79
2023/09/09 03:20:52;;;;;;;11.38;5.90;;;;;;;16.62;71.33;98441.00;4411456;32;20063;-79
2023/09/09 03:23:19;;;;;;;13.43;6.40;;;;;;;16.60;71.05;98435.06;4411790;32;20082;-79
2023/09/09 03:25:47;;;;;;;13.48;6.70;;;;;;;16.34;71.66;98440.06;4411605;32;20110;-79
2023/09/09 03:28:14;;;;;;;13.13;6.47;;;;;;;16.52;71.49;98437.28;4412010;32;20843;-79
2023/09/09 03:30:54;;;;;;;13.52;6.28;;;;;;;16.64;70.89;98433.94;4411595;32;20098;-79
2023/09/09 03:33:22;;;;;;;14.93;6.37;;;;;;;16.41;72.19;98441.38;4411182;32;20144;-79
2023/09/09 03:35:49;;;;;;;13.50;6.20;;;;;;;16.50;71.36;98442.59;4411358;32;20132;-79
2023/09/09 03:38:16;;;;;;;13.80;6.32;;;;;;;16.23;72.17;98439.84;4397384;32;20123;-79
2023/09/09 03:40:43;;;;;;;12.80;6.00;;;;;;;16.06;72.49;98443.47;4411397;32;20087;-79
2023/09/09 03:43:12;;;;;;;14.90;6.95;;;;;;;16.09;72.56;98439.84;4411203;32;20110;-79
2023/09/09 03:45:39;;;;;;;15.55;5.97;;;;;;;16.13;72.88;98441.31;4410935;32;20103;-79
2023/09/09 03:48:06;;;;;;;14.82;6.07;;;;;;;16.24;72.36;98443.28;4411681;32;20089;-79
2023/09/09 03:50:33;;;;;;;12.60;5.97;;;;;;;15.86;73.77;98447.22;4413689;32;20087;-79
2023/09/09 03:53:00;;;;;;;12.40;5.97;;;;;;;15.91;73.53;98441.75;4412980;32;20464;-79
2023/09/09 03:55:27;;;;;;;13.02;6.07;;;;;;;16.00;73.01;98446.41;4413523;32;20369;-79
2023/09/09 03:57:54;;;;;;;14.20;6.35;;;;;;;16.29;71.27;98436.91;4413691;32;20156;-79
2023/09/09 04:00:21;;;;;;;12.70;6.53;;;;;;;16.21;72.11;98444.31;4413315;32;20062;-79
2023/09/09 04:02:50;;;;;;;11.98;6.00;;;;;;;16.15;71.96;98439.47;4399946;32;20074;-79
2023/09/09 04:05:17;;;;;;;15.23;6.78;;;;;;;16.17;72.70;98441.06;4413334;32;20110;-79
2023/09/09 04:07:44;;;;;;;12.70;6.70;;;;;;;16.18;72.94;98440.13;4413313;32;20125;-79
2023/09/09 04:10:14;;;;;;;14.73;7.37;;;;;;;15.94;74.52;98445.94;4412915;32;20159;-79
2023/09/09 04:12:41;;;;;;;15.48;6.87;;;;;;;15.86;76.75;98446.37;4412904;32;20504;-79
2023/09/09 04:15:10;;;;;;;14.63;6.70;;;;;;;16.04;76.30;98453.09;4413054;32;20112;-79
2023/09/09 04:17:38;;;;;;;16.58;7.05;;;;;;;16.00;76.57;98446.41;4412916;32;20114;-79
2023/09/09 04:20:08;;;;;;;18.70;7.15;;;;;;;16.04;76.79;98444.47;4413277;32;20082;-79
2023/09/09 04:22:35;;;;;;;15.05;7.25;;;;;;;16.25;76.53;98450.16;4412920;32;20094;-79
2023/09/09 04:25:03;;;;;;;16.83;6.97;;;;;;;16.36;75.53;98458.19;4413207;32;20188;-79
2023/09/09 04:27:31;;;;;;;18.02;7.78;;;;;;;16.43;75.64;98449.09;4412798;32;20112;-79
2023/09/09 04:29:58;;;;;;;17.10;7.20;;;;;;;16.61;72.49;98452.34;4413034;32;20140;-79
2023/09/09 04:32:26;;;;;;;13.38;6.95;;;;;;;16.73;71.40;98451.63;4413184;32;20074;-79
2023/09/09 04:34:53;;;;;;;13.38;6.60;;;;;;;16.66;70.88;98450.28;4413077;32;20113;-79
2023/09/09 04:37:20;;;;;;;15.10;6.70;;;;;;;16.48;71.40;98454.84;4413339;32;20098;-79
2023/09/09 04:39:47;;;;;;;15.65;7.12;;;;;;;15.77;75.25;98450.34;4399519;32;20090;-79
2023/09/09 04:42:16;;;;;;;16.60;6.87;;;;;;;15.73;76.42;98454.03;4412881;32;20074;-79
2023/09/09 04:44:44;;;;;;;16.50;6.80;;;;;;;16.25;75.08;98453.59;4413343;32;20138;-79
2023/09/09 04:47:10;;;;;;;13.52;5.85;;;;;;;16.05;76.45;98449.56;4413810;32;20089;-79
2023/09/09 04:49:37;;;;;;;16.60;6.62;;;;;;;16.43;75.02;98459.50;4413454;32;20125;-79
2023/09/09 04:52:05;;;;;;;12.85;5.95;;;;;;;16.41;74.65;98456.16;4413661;32;20787;-79
2023/09/09 04:54:32;;;;;;;12.63;6.50;;;;;;;16.90;71.89;98459.22;4414545;32;20146;-79
2023/09/09 04:56:59;;;;;;;15.15;6.45;;;;;;;17.13;70.89;98462.22;4414613;32;20134;-79
2023/09/09 04:59:26;;;;;;;16.35;6.45;;;;;;;16.99;71.71;98456.06;4414437;32;20082;-79
2023/09/09 05:01:53;;;;;;;12.98;6.68;;;;;;;16.83;72.22;98452.75;4415125;32;20054;-79
2023/09/09 05:04:22;;;;;;;13.48;6.70;;;;;;;17.00;72.22;98456.91;4415348;32;20063;-79
2023/09/09 05:06:49;;;;;;;12.98;6.47;;;;;;;17.40;71.33;98457.84;4416032;32;20776;-79
2023/09/09 05:09:17;;;;;;;12.23;6.12;;;;;;;17.68;71.33;98453.47;4416440;32;20121;-79
2023/09/09 05:11:44;;;;;;;14.75;5.80;;;;;;;18.19;68.91;98454.44;4416154;32;20051;-79
2023/09/09 05:14:11;;;;;;;13.13;5.65;;;;;;;18.85;65.99;98455.16;4415971;32;20112;-79
2023/09/09 05:16:38;;;;;;;11.88;5.70;;;;;;;19.68;62.86;98453.56;4415723;32;20110;-79
2023/09/09 05:19:05;;;;;;;13.10;6.72;;;;;;;20.41;60.47;98460.28;4415347;32;20100;-79
2023/09/09 05:21:32;;;;;;;15.32;6.53;;;;;;;21.17;58.29;98458.78;4402432;32;20114;-79
2023/09/09 05:23:59;;;;;;;13.27;5.60;;;;;;;22.16;56.18;98463.84;4415524;32;20118;-79
2023/09/09 05:26:26;;;;;;;14.30;5.82;;;;;;;22.66;53.07;98466.66;4415452;32;20106;-79
2023/09/09 05:28:53;;;;;;;12.07;5.75;;;;;;;23.56;51.13;98461.37;4415206;32;20122;-79
2023/09/09 05:31:20;;;;;;;12.25;5.65;;;;;;;23.82;49.04;98469.59;4414904;32;20684;-79
2023/09/09 05:33:47;;;;;;;10.75;5.28;;;;;;;24.39;47.65;98468.75;4415731;32;20078;-79
2023/09/09 05:36:14;;;;;;;13.38;5.87;;;;;;;25.00;46.00;98473.53;4415223;32;20105;-80
2023/09/09 05:38:41;;;;;;;13.68;5.80;;;;;;;25.76;44.21;98461.87;4414648;32;20101;-80
2023/09/09 05:41:08;;;;;;;19.17;5.55;;;;;;;26.62;41.95;98476.09;4414892;32;20083;-79
2023/09/09 05:43:35;;;;;;;11.38;5.15;;;;;;;27.25;40.15;98477.59;4413921;32;20070;-79
2023/09/09 05:46:03;;;;;;;12.20;5.07;;;;;;;27.51;39.91;98480.97;4413507;32;20085;-80
2023/09/09 05:48:31;;;;;;;13.07;5.60;;;;;;;28.08;38.61;98480.25;4413962;32;20144;-80
2023/09/09 05:50:58;;;;;;;10.27;5.25;;;;;;;28.46;38.27;98482.22;4413448;32;20125;-80
2023/09/09 05:53:25;;;;;;;11.05;5.20;;;;;;;28.79;37.58;98476.81;4399795;32;20154;-79
2023/09/09 05:55:54;;;;;;;10.75;5.37;;;;;;;29.04;37.41;98481.09;4414000;32;20156;-80
2023/09/09 05:58:21;;;;;;;11.73;5.07;;;;;;;29.28;36.98;98479.34;4413781;32;20135;-80
2023/09/09 06:00:47;;;;;;;11.18;5.57;;;;;;;29.42;36.80;98491.06;4413853;32;20120;-80
2023/09/09 06:03:14;;;;;;;11.82;5.50;;;;;;;29.13;37.24;98491.69;4413980;32;20086;-79
2023/09/09 06:05:41;;;;;;;10.18;4.97;;;;;;;29.15;37.01;98489.69;4413988;32;20166;-80
2023/09/09 06:08:08;;;;;;;12.18;5.60;;;;;;;29.64;36.17;98488.44;4414315;32;20104;-79
2023/09/09 06:10:35;;;;;;;10.55;5.62;;;;;;;29.88;35.74;98490.13;4414746;32;20093;-79
2023/09/09 06:13:03;;;;;;;12.10;5.50;;;;;;;30.42;35.16;98495.38;4414478;32;20511;-80
2023/09/09 06:15:30;;;;;;;12.45;5.90;;;;;;;30.67;36.00;98495.97;4414648;32;20058;-80
2023/09/09 06:17:57;;;;;;;12.60;6.22;;;;;;;31.28;33.42;98498.47;4414529;32;20086;-79
2023/09/09 06:20:24;;;;;;;10.90;5.60;;;;;;;32.12;31.13;98501.44;4414835;32;20112;-80
2023/09/09 06:22:51;;;;;;;11.63;5.80;;;;;;;32.36;30.77;98501.06;4415547;32;20110;-80
2023/09/09 06:25:19;;;;;;;10.85;5.65;;;;;;;31.98;31.97;98497.00;4415434;32;20559;-80
2023/09/09 06:27:46;;;;;;;10.82;5.07;;;;;;;32.34;31.22;98500.44;4415011;32;20109;-80
2023/09/09 06:30:13;;;;;;;11.75;5.87;;;;;;;32.65;31.43;98509.91;4415095;32;20180;-80
2023/09/09 06:32:40;;;;;;;10.93;5.28;;;;;;;32.60;31.35;98504.31;4415309;32;20063;-79
2023/09/09 06:35:08;;;;;;;10.73;5.43;;;;;;;32.66;31.80;98503.53;4415236;32;20074;-79
2023/09/09 06:37:35;;;;;;;12.85;5.20;;;;;;;32.42;31.61;98500.28;4415206;32;20098;-79
2023/09/09 06:40:02;;;;;;;9.93;4.80;;;;;;;32.29;31.66;98496.66;4415392;32;20070;-79
2023/09/09 06:42:31;;;;;;;9.55;4.90;;;;;;;31.22;33.84;98505.38;4413594;32;20475;-79
2023/09/09 06:45:00;;;;;;;10.05;5.03;;;;;;;31.20;32.51;98506.56;4413378;32;20058;-80
2023/09/09 06:47:26;;;;;;;9.43;4.62;;;;;;;30.02;35.14;98506.31;4413792;32;20120;-79
2023/09/09 06:49:53;;;;;;;8.60;4.60;;;;;;;28.94;36.63;98514.19;4414198;32;20072;-79
2023/09/09 06:52:20;;;;;;;12.85;5.25;;;;;;;28.87;37.17;98515.81;4414104;32;20134;-79
2023/09/09 06:54:47;;;;;;;10.65;5.18;;;;;;;28.39;37.58;98517.53;4413949;32;20102;-79
2023/09/09 06:57:14;;;;;;;11.40;5.12;;;;;;;28.21;38.91;98517.72;4414398;32;20546;-79
2023/09/09 06:59:41;;;;;;;12.68;5.60;;;;;;;28.08;38.17;98520.03;4413661;32;20058;-79
2023/09/09 07:02:09;;;;;;;12.37;5.22;;;;;;;28.80;37.06;98520.97;4413486;32;20098;-79
2023/09/09 07:04:36;;;;;;;16.70;5.50;;;;;;;28.62;37.50;98525.69;4414415;32;20101;-79
2023/09/09 07:07:03;;;;;;;10.23;5.05;;;;;;;28.41;38.34;98519.06;4414067;32;20081;-79
2023/09/09 07:09:39;;;;;;;10.48;5.25;;;;;;;28.05;38.72;98523.81;4415269;32;20086;-79
2023/09/09 07:12:08;;;;;;;10.73;5.25;;;;;;;28.30;38.69;98519.41;4414997;32;20078;-79
2023/09/09 07:14:35;;;;;;;11.38;5.47;;;;;;;27.64;39.75;98521.06;4401570;32;20440;-79
2023/09/09 07:17:08;;;;;;;11.45;5.40;;;;;;;27.99;39.36;98519.19;4414685;32;20062;-79
2023/09/09 07:19:34;;;;;;;12.40;5.57;;;;;;;27.90;39.54;98518.34;4415002;32;20082;-79
2023/09/09 07:22:01;;;;;;;13.98;5.10;;;;;;;27.73;39.49;98523.78;4415111;32;20087;-79
2023/09/09 07:24:28;;;;;;;11.75;5.25;;;;;;;28.48;38.79;98522.69;4416647;32;20109;-79
2023/09/09 07:26:57;;;;;;;11.02;5.03;;;;;;;28.39;38.82;98523.72;4417221;32;20077;-79
2023/09/09 07:29:24;;;;;;;12.68;5.65;;;;;;;28.51;38.31;98525.03;4404034;32;20146;-79
2023/09/09 07:31:51;;;;;;;14.50;5.75;;;;;;;28.20;38.79;98529.31;4417463;32;20136;-79
2023/09/09 07:34:19;;;;;;;13.38;5.80;;;;;;;28.20;38.85;98529.31;4416848;32;20073;-79
2023/09/09 07:36:47;;;;;;;12.63;5.50;;;;;;;27.69;39.66;98530.41;4417192;32;20538;-79
2023/09/09 07:39:14;;;;;;;12.15;5.43;;;;;;;28.47;38.41;98531.66;4416335;32;20129;-79
2023/09/09 07:41:41;;;;;;;12.35;5.07;;;;;;;29.02;38.31;98527.41;4416366;32;20070;-79
2023/09/09 07:44:08;;;;;;;12.02;5.15;;;;;;;28.38;38.52;98537.13;4416315;32;20079;-79
2023/09/09 07:46:35;;;;;;;10.63;5.00;;;;;;;28.31;38.60;98536.97;4415105;32;20078;-79
2023/09/09 07:49:02;;;;;;;9.88;5.00;;;;;;;27.56;39.84;98534.31;4414800;32;20144;-80
2023/09/09 07:51:29;;;;;;;11.52;5.60;;;;;;;28.49;38.79;98532.31;4415338;32;20089;-79
2023/09/09 07:53:56;;;;;;;10.82;5.10;;;;;;;28.13;39.17;98538.94;4414317;32;20098;-79
2023/09/09 07:56:23;;;;;;;11.95;4.78;;;;;;;27.85;39.76;98539.22;4414843;32;20104;-79
2023/09/09 07:58:50;;;;;;;12.32;5.45;;;;;;;27.54;38.83;98531.00;4414986;32;20467;-79
2023/09/09 08:01:17;;;;;;;10.32;4.90;;;;;;;28.29;38.33;98532.84;4415315;32;20102;-79
2023/09/09 08:03:44;;;;;;;11.20;4.95;;;;;;;28.41;38.34;98531.50;4401749;32;20062;-79
2023/09/09 08:06:12;;;;;;;10.75;4.72;;;;;;;29.00;37.28;98540.03;4415568;32;20145;-79
2023/09/09 08:08:39;;;;;;;10.88;4.90;;;;;;;29.90;35.55;98536.00;4414845;32;20074;-80
2023/09/09 08:11:06;;;;;;;11.10;4.90;;;;;;;29.37;35.80;98547.41;4414652;32;20054;-80
2023/09/09 08:13:33;;;;;;;11.00;4.68;;;;;;;29.79;35.46;98541.72;4414068;32;20714;-80
2023/09/09 08:16:00;;;;;;;11.52;5.43;;;;;;;28.84;36.61;98545.37;4414559;32;20480;-80
2023/09/09 08:18:27;;;;;;;12.23;4.68;;;;;;;30.17;34.46;98533.84;4414447;32;20526;-79
2023/09/09 08:20:54;;;;;;;12.05;4.93;;;;;;;29.50;36.17;98541.56;4414234;32;20460;-79
2023/09/09 08:23:22;;;;;;;10.25;4.75;;;;;;;29.37;35.90;98540.25;4414940;32;20058;-79
2023/09/09 08:25:49;;;;;;;13.98;5.40;;;;;;;29.78;34.68;98544.56;4414682;32;20432;-80
2023/09/09 08:28:16;;;;;;;11.63;5.28;;;;;;;29.69;34.47;98541.12;4414200;32;20074;-80
2023/09/09 08:30:46;;;;;;;10.90;4.50;;;;;;;30.71;32.94;98531.88;4414749;32;20743;-79
2023/09/09 08:33:13;;;;;;;11.68;5.00;;;;;;;30.41;33.92;98532.78;4414300;32;20098;-80
2023/09/09 08:35:40;;;;;;;11.55;5.22;;;;;;;31.59;32.19;98533.72;4414382;32;20062;-80
2023/09/09 08:38:07;;;;;;;12.10;4.82;;;;;;;31.53;32.42;98534.47;4414658;32;20070;-80
2023/09/09 08:40:41;;;;;;;9.63;4.97;;;;;;;31.97;31.68;98532.69;4414134;32;20722;-80
2023/09/09 08:43:39;;;;;;;11.55;5.25;;;;;;;31.85;31.08;98538.53;4400172;32;20120;-80
2023/09/09 08:46:08;;;;;;;11.55;5.00;;;;;;;31.97;30.58;98530.03;4412796;32;20164;-80
2023/09/09 08:48:37;;;;;;;10.05;4.60;;;;;;;31.90;31.07;98538.81;4412512;32;20074;-80
2023/09/09 08:51:04;;;;;;;10.38;5.15;;;;;;;32.78;30.28;98539.38;4412806;32;20121;-80
2023/09/09 08:53:31;;;;;;;10.13;4.80;;;;;;;32.88;29.85;98533.72;4412665;32;20099;-80
2023/09/09 08:55:59;;;;;;;10.77;5.53;;;;;;;32.25;30.71;98536.25;4399555;32;20463;-80
2023/09/09 08:58:27;;;;;;;11.73;4.78;;;;;;;32.68;29.53;98534.38;4400041;32;20078;-80
2023/09/09 09:00:54;;;;;;;10.60;4.90;;;;;;;32.61;29.88;98533.50;4399257;32;20162;-80
2023/09/09 09:03:22;;;;;;;10.07;4.60;;;;;;;32.80;29.31;98540.81;4413108;32;20066;-80
2023/09/09 09:05:51;;;;;;;9.68;4.70;;;;;;;33.90;27.96;98541.81;4400116;32;20598;-80
2023/09/09 09:08:17;;;;;;;9.27;4.53;;;;;;;34.29;27.68;98534.88;4399967;32;20078;-80
2023/09/09 09:10:48;;;;;;;11.43;5.40;;;;;;;34.08;27.26;98534.03;4413482;32;20113;-80
2023/09/09 09:13:15;;;;;;;9.60;4.30;;;;;;;32.70;29.23;98532.34;4387855;32;20829;-80
2023/09/09 09:15:42;;;;;;;10.57;4.60;;;;;;;32.67;29.10;98527.38;4399467;32;20097;-80
2023/09/09 09:18:09;;;;;;;10.10;4.68;;;;;;;33.54;27.75;98528.72;4413117;32;20433;-81
2023/09/09 09:20:38;;;;;;;10.13;4.60;;;;;;;33.58;27.57;98522.75;4412766;32;20169;-80
2023/09/09 09:23:06;;;;;;;9.23;4.60;;;;;;;34.15;26.19;98516.13;4412674;32;20153;-80
2023/09/09 09:25:36;;;;;;;9.05;4.37;;;;;;;34.64;25.35;98514.06;4412817;32;20093;-81
2023/09/09 09:28:04;;;;;;;15.02;4.75;;;;;;;34.50;25.21;98522.13;4412648;32;20137;-81
2023/09/09 09:30:31;;;;;;;9.55;4.60;;;;;;;33.77;25.97;98520.34;4412903;32;20091;-81
2023/09/09 09:32:58;;;;;;;10.00;4.40;;;;;;;34.58;25.07;98514.91;4412508;32;20175;-81
2023/09/09 09:35:33;;;;;;;9.65;4.65;;;;;;;34.86;25.44;98520.00;4411931;32;20089;-81
2023/09/09 09:38:09;;;;;;;11.25;4.40;;;;;;;34.84;24.51;98517.53;4399029;32;20105;-80
2023/09/09 09:40:38;;;;;;;8.88;4.78;;;;;;;35.56;24.64;98516.50;4412263;32;20201;-81
2023/09/09 09:43:16;;;;;;;9.95;4.30;;;;;;;34.25;25.27;98517.56;4412324;32;20112;-81
2023/09/09 09:45:43;;;;;;;11.12;4.32;;;;;;;34.66;24.65;98506.63;4398268;32;20112;-80
2023/09/09 09:48:10;;;;;;;11.35;4.50;;;;;;;32.69;26.66;98513.81;4411493;32;20074;-80
2023/09/09 09:50:37;;;;;;;10.43;4.78;;;;;;;34.54;24.63;98511.81;4411339;32;20102;-80
2023/09/09 09:53:05;;;;;;;10.02;4.72;;;;;;;34.46;24.43;98507.50;4399188;32;20124;-80
2023/09/09 09:55:33;;;;;;;9.80;4.43;;;;;;;34.56;24.56;98514.25;4412299;32;20085;-80
2023/09/09 09:58:02;;;;;;;10.05;4.43;;;;;;;34.56;25.28;98506.22;4397940;32;20674;-80
2023/09/09 10:00:30;;;;;;;10.95;4.22;;;;;;;35.08;24.28;98511.50;4412130;32;20117;-81
2023/09/09 10:02:59;;;;;;;11.63;4.85;;;;;;;35.26;23.76;98510.00;4413132;32;20456;-81
2023/09/09 10:05:28;;;;;;;10.30;4.40;;;;;;;35.10;24.87;98508.63;4400308;32;20136;-81
2023/09/09 10:08:14;;;;;;;13.07;5.00;;;;;;;34.54;25.46;98502.94;4398869;32;20125;-81
2023/09/09 10:10:56;;;;;;;9.65;4.65;;;;;;;33.12;26.47;98511.03;4412110;32;20170;-80
2023/09/09 10:13:32;;;;;;;10.95;4.82;;;;;;;33.29;26.73;98507.00;4411902;32;20143;-80
2023/09/09 10:16:00;;;;;;;11.12;4.43;;;;;;;33.51;25.97;98508.56;4412255;32;20565;-81
2023/09/09 10:18:27;;;;;;;9.88;4.50;;;;;;;34.44;26.39;98506.03;4398266;32;20098;-81
2023/09/09 10:20:55;;;;;;;8.15;4.30;;;;;;;34.12;25.25;98511.16;4399190;32;20093;-80
2023/09/09 10:23:25;;;;;;;11.82;5.07;;;;;;;34.56;25.25;98501.72;4399746;32;20164;-81
2023/09/09 10:25:53;;;;;;;8.43;4.05;;;;;;;34.84;24.55;98506.81;4411962;32;20108;-81
2023/09/09 10:28:21;;;;;;;8.63;4.15;;;;;;;34.59;25.02;98500.47;4412681;32;20137;-81
2023/09/09 10:30:48;;;;;;;9.63;4.30;;;;;;;34.82;24.28;98494.66;4412180;32;20090;-81
2023/09/09 10:33:18;;;;;;;9.20;3.83;;;;;;;33.53;25.52;98494.97;4411932;32;20090;-80
2023/09/09 10:35:46;;;;;;;8.77;4.50;;;;;;;32.12;27.11;98491.59;4411340;32;20110;-80
2023/09/09 10:38:14;;;;;;;10.15;4.50;;;;;;;31.51;28.51;98490.34;4412217;32;20101;-80
2023/09/09 10:40:41;;;;;;;9.68;4.30;;;;;;;31.82;28.40;98490.91;4384261;32;20094;-80
2023/09/09 10:43:08;;;;;;;9.63;4.72;;;;;;;32.33;28.43;98482.75;4411983;32;20106;-81
2023/09/09 10:45:45;;;;;;;10.20;4.22;;;;;;;32.93;27.18;98491.19;4411728;32;20160;-80
2023/09/09 10:48:13;;;;;;;8.13;4.25;;;;;;;32.39;27.74;98481.97;4411908;32;20069;-80
2023/09/09 10:50:45;;;;;;;10.50;4.35;;;;;;;32.44;27.82;98484.06;4412004;32;20136;-80
2023/09/09 10:53:23;;;;;;;12.30;4.53;;;;;;;32.48;28.06;98479.97;4412465;32;20090;-80
2023/09/09 10:56:00;;;;;;;10.93;5.00;;;;;;;32.82;28.23;98473.81;4399632;32;20098;-81
2023/09/09 10:58:38;;;;;;;10.38;4.85;;;;;;;33.60;26.83;98477.06;4399579;32;20164;-80
2023/09/09 11:01:09;;;;;;;10.80;4.55;;;;;;;33.31;26.93;98470.19;4412869;32;20153;-81
2023/09/09 11:03:39;;;;;;;15.02;5.03;;;;;;;33.34;26.28;98472.44;4399569;32;20162;-80
2023/09/09 11:06:07;;;;;;;9.52;4.45;;;;;;;33.96;25.76;98478.63;4412713;32;20142;-81
2023/09/09 11:08:41;;;;;;;10.38;4.87;;;;;;;34.48;25.23;98477.81;4412482;32;20109;-81
2023/09/09 11:11:10;;;;;;;10.55;4.55;;;;;;;34.71;24.51;98467.47;4412327;32;20801;-81
2023/09/09 11:13:43;;;;;;;10.02;4.43;;;;;;;34.83;24.52;98474.84;4412218;32;20335;-80
2023/09/09 11:16:33;;;;;;;8.27;4.03;;;;;;;33.50;26.00;98472.12;4411100;32;20086;-80
2023/09/09 11:19:08;;;;;;;10.45;4.80;;;;;;;34.04;25.50;98463.19;4410833;32;20073;-81
2023/09/09 11:21:39;;;;;;;11.60;4.50;;;;;;;34.93;26.00;98470.72;4413368;32;20164;-80
2023/09/09 11:24:07;;;;;;;9.40;4.32;;;;;;;34.73;26.79;98472.59;4412891;32;20153;-80
2023/09/09 11:26:43;;;;;;;13.62;4.60;;;;;;;35.14;25.26;98464.25;4397697;32;20104;-81
2023/09/09 11:29:10;;;;;;;10.68;4.68;;;;;;;34.50;26.11;98460.50;4396899;32;20099;-80
2023/09/09 11:31:57;;;;;;;12.18;4.37;;;;;;;34.68;26.34;98467.06;4400163;32;20106;-80